sensor_id;sensor_type;location;lat;lon;timestamp;P1;durP1;ratioP1;P2;durP2;ratioP2
56043;SDS011;41912;51.022;3.664;2022-11-06T00:00:42;11.18;;;4.05;;
56043;SDS011;41912;51.022;3.664;2022-11-06T00:03:08;14.13;;;3.97;;
56043;SDS011;41912;51.022;3.664;2022-11-06T00:05:37;13.90;;;4.18;;
56043;SDS011;41912;51.022;3.664;2022-11-06T00:08:27;10.27;;;3.78;;
56043;SDS011;41912;51.022;3.664;2022-11-06T00:11:11;14.52;;;3.65;;
56043;SDS011;41912;51.022;3.664;2022-11-06T00:13:40;18.50;;;3.75;;
56043;SDS011;41912;51.022;3.664;2022-11-06T00:16:07;11.48;;;2.97;;
56043;SDS011;41912;51.022;3.664;2022-11-06T00:18:34;10.02;;;3.08;;
56043;SDS011;41912;51.022;3.664;2022-11-06T00:21:11;9.77;;;3.47;;
56043;SDS011;41912;51.022;3.664;2022-11-06T00:23:51;13.60;;;3.55;;
56043;SDS011;41912;51.022;3.664;2022-11-06T00:26:18;11.05;;;3.35;;
56043;SDS011;41912;51.022;3.664;2022-11-06T00:28:45;12.32;;;3.50;;
56043;SDS011;41912;51.022;3.664;2022-11-06T00:31:12;8.95;;;2.85;;
56043;SDS011;41912;51.022;3.664;2022-11-06T00:33:41;17.33;;;3.13;;
56043;SDS011;41912;51.022;3.664;2022-11-06T00:36:08;9.90;;;3.55;;
56043;SDS011;41912;51.022;3.664;2022-11-06T00:38:35;17.40;;;4.22;;
56043;SDS011;41912;51.022;3.664;2022-11-06T00:41:02;14.30;;;4.65;;
56043;SDS011;41912;51.022;3.664;2022-11-06T00:43:32;12.75;;;3.38;;
56043;SDS011;41912;51.022;3.664;2022-11-06T00:46:00;12.70;;;3.30;;
56043;SDS011;41912;51.022;3.664;2022-11-06T00:48:33;11.68;;;3.13;;
56043;SDS011;41912;51.022;3.664;2022-11-06T00:51:01;11.18;;;3.30;;
56043;SDS011;41912;51.022;3.664;2022-11-06T00:53:28;12.27;;;3.15;;
56043;SDS011;41912;51.022;3.664;2022-11-06T00:55:53;16.73;;;3.55;;
56043;SDS011;41912;51.022;3.664;2022-11-06T00:58:19;8.77;;;3.15;;
56043;SDS011;41912;51.022;3.664;2022-11-06T01:00:45;8.75;;;3.08;;
56043;SDS011;41912;51.022;3.664;2022-11-06T01:03:10;13.82;;;3.40;;
56043;SDS011;41912;51.022;3.664;2022-11-06T01:05:36;19.80;;;3.53;;
56043;SDS011;41912;51.022;3.664;2022-11-06T01:08:01;9.15;;;3.42;;
56043;SDS011;41912;51.022;3.664;2022-11-06T01:10:27;11.85;;;3.75;;
56043;SDS011;41912;51.022;3.664;2022-11-06T01:12:52;15.15;;;3.63;;
56043;SDS011;41912;51.022;3.664;2022-11-06T01:15:18;14.25;;;3.72;;
56043;SDS011;41912;51.022;3.664;2022-11-06T01:17:43;10.70;;;3.47;;
56043;SDS011;41912;51.022;3.664;2022-11-06T01:20:09;13.85;;;3.58;;
56043;SDS011;41912;51.022;3.664;2022-11-06T01:22:35;12.40;;;3.75;;
56043;SDS011;41912;51.022;3.664;2022-11-06T01:25:00;14.35;;;3.92;;
56043;SDS011;41912;51.022;3.664;2022-11-06T01:27:26;11.20;;;3.58;;
56043;SDS011;41912;51.022;3.664;2022-11-06T01:29:52;16.35;;;5.05;;
56043;SDS011;41912;51.022;3.664;2022-11-06T01:32:18;16.67;;;3.83;;
56043;SDS011;41912;51.022;3.664;2022-11-06T01:34:44;10.38;;;3.28;;
56043;SDS011;41912;51.022;3.664;2022-11-06T01:37:10;14.30;;;3.95;;
56043;SDS011;41912;51.022;3.664;2022-11-06T01:39:36;19.15;;;4.13;;
56043;SDS011;41912;51.022;3.664;2022-11-06T01:42:02;17.05;;;3.80;;
56043;SDS011;41912;51.022;3.664;2022-11-06T01:47:17;11.75;;;3.70;;
56043;SDS011;41912;51.022;3.664;2022-11-06T01:49:45;11.75;;;3.35;;
56043;SDS011;41912;51.022;3.664;2022-11-06T01:52:12;16.08;;;3.28;;
56043;SDS011;41912;51.022;3.664;2022-11-06T01:54:40;14.52;;;3.55;;
56043;SDS011;41912;51.022;3.664;2022-11-06T01:57:08;15.80;;;3.88;;
56043;SDS011;41912;51.022;3.664;2022-11-06T01:59:36;12.07;;;3.40;;
56043;SDS011;41912;51.022;3.664;2022-11-06T02:02:05;16.10;;;3.08;;
56043;SDS011;41912;51.022;3.664;2022-11-06T02:04:31;9.85;;;3.47;;
56043;SDS011;41912;51.022;3.664;2022-11-06T02:07:01;8.93;;;2.83;;
56043;SDS011;41912;51.022;3.664;2022-11-06T02:09:27;19.23;;;3.65;;
56043;SDS011;41912;51.022;3.664;2022-11-06T02:12:00;9.55;;;2.88;;
56043;SDS011;41912;51.022;3.664;2022-11-06T02:14:33;11.05;;;2.85;;
56043;SDS011;41912;51.022;3.664;2022-11-06T02:20:12;16.23;;;4.38;;
56043;SDS011;41912;51.022;3.664;2022-11-06T02:25:49;12.48;;;3.08;;
56043;SDS011;41912;51.022;3.664;2022-11-06T02:28:27;14.20;;;3.30;;
56043;SDS011;41912;51.022;3.664;2022-11-06T02:30:58;14.18;;;3.38;;
56043;SDS011;41912;51.022;3.664;2022-11-06T02:33:30;8.55;;;3.30;;
56043;SDS011;41912;51.022;3.664;2022-11-06T02:36:00;10.88;;;3.35;;
56043;SDS011;41912;51.022;3.664;2022-11-06T02:38:30;15.48;;;2.95;;
56043;SDS011;41912;51.022;3.664;2022-11-06T02:41:04;9.25;;;3.10;;
56043;SDS011;41912;51.022;3.664;2022-11-06T02:43:35;11.45;;;2.92;;
56043;SDS011;41912;51.022;3.664;2022-11-06T02:46:05;12.27;;;3.55;;
56043;SDS011;41912;51.022;3.664;2022-11-06T02:48:42;8.32;;;2.60;;
56043;SDS011;41912;51.022;3.664;2022-11-06T02:51:21;11.13;;;2.90;;
56043;SDS011;41912;51.022;3.664;2022-11-06T02:53:50;8.27;;;2.78;;
56043;SDS011;41912;51.022;3.664;2022-11-06T02:56:19;10.25;;;3.42;;
56043;SDS011;41912;51.022;3.664;2022-11-06T03:01:28;7.38;;;3.08;;
56043;SDS011;41912;51.022;3.664;2022-11-06T03:04:02;13.45;;;2.70;;
56043;SDS011;41912;51.022;3.664;2022-11-06T03:06:37;15.00;;;3.88;;
56043;SDS011;41912;51.022;3.664;2022-11-06T03:09:08;9.82;;;2.70;;
56043;SDS011;41912;51.022;3.664;2022-11-06T03:11:38;14.88;;;2.80;;
56043;SDS011;41912;51.022;3.664;2022-11-06T03:14:12;9.07;;;3.00;;
56043;SDS011;41912;51.022;3.664;2022-11-06T03:22:05;12.68;;;2.80;;
56043;SDS011;41912;51.022;3.664;2022-11-06T03:24:38;11.40;;;3.42;;
56043;SDS011;41912;51.022;3.664;2022-11-06T03:27:18;7.25;;;2.92;;
56043;SDS011;41912;51.022;3.664;2022-11-06T03:29:55;16.83;;;3.83;;
56043;SDS011;41912;51.022;3.664;2022-11-06T03:35:00;8.63;;;2.80;;
56043;SDS011;41912;51.022;3.664;2022-11-06T03:37:38;9.55;;;2.80;;
56043;SDS011;41912;51.022;3.664;2022-11-06T03:40:10;13.80;;;3.03;;
56043;SDS011;41912;51.022;3.664;2022-11-06T03:42:39;11.02;;;2.97;;
56043;SDS011;41912;51.022;3.664;2022-11-06T03:45:08;13.63;;;3.00;;
56043;SDS011;41912;51.022;3.664;2022-11-06T03:47:42;11.95;;;3.03;;
56043;SDS011;41912;51.022;3.664;2022-11-06T03:50:18;10.88;;;2.67;;
56043;SDS011;41912;51.022;3.664;2022-11-06T03:53:02;11.63;;;2.83;;
56043;SDS011;41912;51.022;3.664;2022-11-06T03:55:41;18.17;;;5.28;;
56043;SDS011;41912;51.022;3.664;2022-11-06T03:58:25;9.95;;;3.10;;
56043;SDS011;41912;51.022;3.664;2022-11-06T04:00:55;10.98;;;2.65;;
56043;SDS011;41912;51.022;3.664;2022-11-06T04:03:28;13.57;;;3.15;;
56043;SDS011;41912;51.022;3.664;2022-11-06T04:06:03;16.17;;;4.20;;
56043;SDS011;41912;51.022;3.664;2022-11-06T04:08:33;11.32;;;2.92;;
56043;SDS011;41912;51.022;3.664;2022-11-06T04:11:33;6.47;;;2.45;;
56043;SDS011;41912;51.022;3.664;2022-11-06T04:14:19;13.95;;;2.65;;
56043;SDS011;41912;51.022;3.664;2022-11-06T04:16:49;8.77;;;2.50;;
56043;SDS011;41912;51.022;3.664;2022-11-06T04:19:19;10.38;;;3.08;;
56043;SDS011;41912;51.022;3.664;2022-11-06T04:24:58;14.00;;;2.70;;
56043;SDS011;41912;51.022;3.664;2022-11-06T04:30:41;11.82;;;2.88;;
56043;SDS011;41912;51.022;3.664;2022-11-06T04:33:24;6.38;;;2.72;;
56043;SDS011;41912;51.022;3.664;2022-11-06T04:41:34;8.57;;;2.25;;
56043;SDS011;41912;51.022;3.664;2022-11-06T04:44:07;8.43;;;2.50;;
56043;SDS011;41912;51.022;3.664;2022-11-06T04:46:43;8.55;;;2.55;;
56043;SDS011;41912;51.022;3.664;2022-11-06T04:49:11;11.98;;;2.85;;
56043;SDS011;41912;51.022;3.664;2022-11-06T04:51:40;10.50;;;2.35;;
56043;SDS011;41912;51.022;3.664;2022-11-06T04:54:09;8.20;;;2.33;;
56043;SDS011;41912;51.022;3.664;2022-11-06T04:56:35;12.75;;;2.63;;
56043;SDS011;41912;51.022;3.664;2022-11-06T04:59:02;10.75;;;2.45;;
56043;SDS011;41912;51.022;3.664;2022-11-06T05:01:28;9.23;;;2.25;;
56043;SDS011;41912;51.022;3.664;2022-11-06T05:03:54;11.75;;;2.70;;
56043;SDS011;41912;51.022;3.664;2022-11-06T05:06:20;9.68;;;2.28;;
56043;SDS011;41912;51.022;3.664;2022-11-06T05:08:46;9.52;;;2.83;;
56043;SDS011;41912;51.022;3.664;2022-11-06T05:11:11;10.43;;;2.78;;
56043;SDS011;41912;51.022;3.664;2022-11-06T05:13:37;6.75;;;2.10;;
56043;SDS011;41912;51.022;3.664;2022-11-06T05:16:03;11.43;;;2.72;;
56043;SDS011;41912;51.022;3.664;2022-11-06T05:18:29;10.38;;;2.55;;
56043;SDS011;41912;51.022;3.664;2022-11-06T05:20:57;9.15;;;2.53;;
56043;SDS011;41912;51.022;3.664;2022-11-06T05:23:45;12.50;;;3.05;;
56043;SDS011;41912;51.022;3.664;2022-11-06T05:26:11;6.43;;;2.20;;
56043;SDS011;41912;51.022;3.664;2022-11-06T05:28:37;10.57;;;2.65;;
56043;SDS011;41912;51.022;3.664;2022-11-06T05:31:03;10.02;;;2.55;;
56043;SDS011;41912;51.022;3.664;2022-11-06T05:33:29;8.85;;;2.55;;
56043;SDS011;41912;51.022;3.664;2022-11-06T05:35:55;12.20;;;2.92;;
56043;SDS011;41912;51.022;3.664;2022-11-06T05:38:21;11.88;;;2.70;;
56043;SDS011;41912;51.022;3.664;2022-11-06T05:40:46;5.82;;;2.03;;
56043;SDS011;41912;51.022;3.664;2022-11-06T05:43:12;8.38;;;2.22;;
56043;SDS011;41912;51.022;3.664;2022-11-06T05:45:37;14.77;;;2.75;;
56043;SDS011;41912;51.022;3.664;2022-11-06T05:48:03;6.93;;;2.15;;
56043;SDS011;41912;51.022;3.664;2022-11-06T05:50:29;13.77;;;2.08;;
56043;SDS011;41912;51.022;3.664;2022-11-06T05:52:54;7.63;;;2.55;;
56043;SDS011;41912;51.022;3.664;2022-11-06T05:55:20;8.63;;;2.63;;
56043;SDS011;41912;51.022;3.664;2022-11-06T05:57:46;9.23;;;2.10;;
56043;SDS011;41912;51.022;3.664;2022-11-06T06:00:11;8.60;;;2.42;;
56043;SDS011;41912;51.022;3.664;2022-11-06T06:02:38;7.70;;;1.90;;
56043;SDS011;41912;51.022;3.664;2022-11-06T06:05:04;11.35;;;2.17;;
56043;SDS011;41912;51.022;3.664;2022-11-06T06:07:30;10.05;;;2.65;;
56043;SDS011;41912;51.022;3.664;2022-11-06T06:09:56;8.27;;;2.67;;
56043;SDS011;41912;51.022;3.664;2022-11-06T06:12:22;7.30;;;1.85;;
56043;SDS011;41912;51.022;3.664;2022-11-06T06:14:50;14.93;;;3.22;;
56043;SDS011;41912;51.022;3.664;2022-11-06T06:17:19;9.88;;;2.33;;
56043;SDS011;41912;51.022;3.664;2022-11-06T06:19:45;5.60;;;1.92;;
56043;SDS011;41912;51.022;3.664;2022-11-06T06:22:11;7.18;;;2.20;;
56043;SDS011;41912;51.022;3.664;2022-11-06T06:24:36;13.07;;;2.30;;
56043;SDS011;41912;51.022;3.664;2022-11-06T06:27:02;7.15;;;2.17;;
56043;SDS011;41912;51.022;3.664;2022-11-06T06:29:28;6.50;;;2.38;;
56043;SDS011;41912;51.022;3.664;2022-11-06T06:31:54;6.32;;;1.90;;
56043;SDS011;41912;51.022;3.664;2022-11-06T06:34:19;9.40;;;2.50;;
56043;SDS011;41912;51.022;3.664;2022-11-06T06:36:49;9.95;;;2.40;;
56043;SDS011;41912;51.022;3.664;2022-11-06T06:39:15;10.77;;;2.28;;
56043;SDS011;41912;51.022;3.664;2022-11-06T06:41:41;9.77;;;3.13;;
56043;SDS011;41912;51.022;3.664;2022-11-06T06:44:07;9.43;;;2.25;;
56043;SDS011;41912;51.022;3.664;2022-11-06T06:46:32;10.18;;;1.95;;
56043;SDS011;41912;51.022;3.664;2022-11-06T06:48:58;8.27;;;2.20;;
56043;SDS011;41912;51.022;3.664;2022-11-06T06:51:23;7.18;;;1.80;;
56043;SDS011;41912;51.022;3.664;2022-11-06T06:53:49;10.93;;;2.67;;
56043;SDS011;41912;51.022;3.664;2022-11-06T06:56:15;14.15;;;3.17;;
56043;SDS011;41912;51.022;3.664;2022-11-06T06:58:40;15.73;;;2.20;;
56043;SDS011;41912;51.022;3.664;2022-11-06T07:01:06;7.68;;;2.15;;
56043;SDS011;41912;51.022;3.664;2022-11-06T07:03:35;11.68;;;2.20;;
56043;SDS011;41912;51.022;3.664;2022-11-06T07:06:01;10.27;;;2.00;;
56043;SDS011;41912;51.022;3.664;2022-11-06T07:08:27;6.63;;;2.75;;
56043;SDS011;41912;51.022;3.664;2022-11-06T07:10:57;11.60;;;3.13;;
56043;SDS011;41912;51.022;3.664;2022-11-06T07:13:27;12.18;;;2.20;;
56043;SDS011;41912;51.022;3.664;2022-11-06T07:15:53;9.05;;;2.85;;
56043;SDS011;41912;51.022;3.664;2022-11-06T07:18:19;12.35;;;1.85;;
56043;SDS011;41912;51.022;3.664;2022-11-06T07:20:45;7.05;;;1.70;;
56043;SDS011;41912;51.022;3.664;2022-11-06T07:23:10;9.77;;;2.30;;
56043;SDS011;41912;51.022;3.664;2022-11-06T07:25:36;14.48;;;2.50;;
56043;SDS011;41912;51.022;3.664;2022-11-06T07:28:02;7.57;;;2.20;;
56043;SDS011;41912;51.022;3.664;2022-11-06T07:30:29;5.57;;;1.70;;
56043;SDS011;41912;51.022;3.664;2022-11-06T07:32:55;7.35;;;1.90;;
56043;SDS011;41912;51.022;3.664;2022-11-06T07:35:20;5.40;;;1.83;;
56043;SDS011;41912;51.022;3.664;2022-11-06T07:37:46;9.00;;;1.90;;
56043;SDS011;41912;51.022;3.664;2022-11-06T07:40:12;10.25;;;2.00;;
56043;SDS011;41912;51.022;3.664;2022-11-06T07:42:38;7.65;;;1.98;;
56043;SDS011;41912;51.022;3.664;2022-11-06T07:45:04;10.93;;;2.08;;
56043;SDS011;41912;51.022;3.664;2022-11-06T07:47:30;9.13;;;2.05;;
56043;SDS011;41912;51.022;3.664;2022-11-06T07:49:56;11.30;;;2.13;;
56043;SDS011;41912;51.022;3.664;2022-11-06T07:52:22;9.32;;;1.90;;
56043;SDS011;41912;51.022;3.664;2022-11-06T07:54:47;8.80;;;1.70;;
56043;SDS011;41912;51.022;3.664;2022-11-06T07:57:13;7.45;;;1.85;;
56043;SDS011;41912;51.022;3.664;2022-11-06T07:59:38;7.25;;;2.00;;
56043;SDS011;41912;51.022;3.664;2022-11-06T08:02:04;10.93;;;1.90;;
56043;SDS011;41912;51.022;3.664;2022-11-06T08:04:30;9.75;;;1.50;;
56043;SDS011;41912;51.022;3.664;2022-11-06T08:06:56;13.10;;;2.35;;
56043;SDS011;41912;51.022;3.664;2022-11-06T08:09:22;6.63;;;1.80;;
56043;SDS011;41912;51.022;3.664;2022-11-06T08:11:49;10.07;;;1.70;;
56043;SDS011;41912;51.022;3.664;2022-11-06T08:14:15;9.25;;;1.88;;
56043;SDS011;41912;51.022;3.664;2022-11-06T08:16:40;15.90;;;2.45;;
56043;SDS011;41912;51.022;3.664;2022-11-06T08:19:06;9.98;;;2.00;;
56043;SDS011;41912;51.022;3.664;2022-11-06T08:21:32;14.27;;;2.13;;
56043;SDS011;41912;51.022;3.664;2022-11-06T08:23:57;7.97;;;1.80;;
56043;SDS011;41912;51.022;3.664;2022-11-06T08:26:23;4.70;;;1.67;;
56043;SDS011;41912;51.022;3.664;2022-11-06T08:28:49;5.07;;;1.80;;
56043;SDS011;41912;51.022;3.664;2022-11-06T08:31:15;7.75;;;1.58;;
56043;SDS011;41912;51.022;3.664;2022-11-06T08:33:40;10.88;;;1.75;;
56043;SDS011;41912;51.022;3.664;2022-11-06T08:36:06;7.95;;;1.50;;
56043;SDS011;41912;51.022;3.664;2022-11-06T08:38:33;9.77;;;3.30;;
56043;SDS011;41912;51.022;3.664;2022-11-06T08:41:03;7.25;;;1.83;;
56043;SDS011;41912;51.022;3.664;2022-11-06T08:43:30;7.63;;;2.20;;
56043;SDS011;41912;51.022;3.664;2022-11-06T08:45:56;7.50;;;2.15;;
56043;SDS011;41912;51.022;3.664;2022-11-06T08:48:23;13.07;;;2.30;;
56043;SDS011;41912;51.022;3.664;2022-11-06T08:50:48;8.95;;;1.88;;
56043;SDS011;41912;51.022;3.664;2022-11-06T08:53:14;9.48;;;1.90;;
56043;SDS011;41912;51.022;3.664;2022-11-06T08:55:39;8.80;;;1.70;;
56043;SDS011;41912;51.022;3.664;2022-11-06T08:58:05;11.50;;;2.10;;
56043;SDS011;41912;51.022;3.664;2022-11-06T09:00:32;8.63;;;1.90;;
56043;SDS011;41912;51.022;3.664;2022-11-06T09:02:58;8.80;;;1.60;;
56043;SDS011;41912;51.022;3.664;2022-11-06T09:05:25;8.30;;;2.65;;
56043;SDS011;41912;51.022;3.664;2022-11-06T09:07:51;9.93;;;2.45;;
56043;SDS011;41912;51.022;3.664;2022-11-06T09:10:17;9.35;;;1.85;;
56043;SDS011;41912;51.022;3.664;2022-11-06T09:12:44;13.20;;;2.90;;
56043;SDS011;41912;51.022;3.664;2022-11-06T09:15:09;12.32;;;2.08;;
56043;SDS011;41912;51.022;3.664;2022-11-06T09:17:45;11.55;;;2.38;;
56043;SDS011;41912;51.022;3.664;2022-11-06T09:20:12;6.65;;;1.70;;
56043;SDS011;41912;51.022;3.664;2022-11-06T09:22:39;6.90;;;2.00;;
56043;SDS011;41912;51.022;3.664;2022-11-06T09:25:05;10.18;;;1.88;;
56043;SDS011;41912;51.022;3.664;2022-11-06T09:27:31;11.18;;;2.58;;
56043;SDS011;41912;51.022;3.664;2022-11-06T09:29:57;10.80;;;3.28;;
56043;SDS011;41912;51.022;3.664;2022-11-06T09:32:23;9.55;;;3.08;;
56043;SDS011;41912;51.022;3.664;2022-11-06T09:34:49;8.38;;;3.15;;
56043;SDS011;41912;51.022;3.664;2022-11-06T09:37:14;6.57;;;2.00;;
56043;SDS011;41912;51.022;3.664;2022-11-06T09:39:40;12.40;;;1.90;;
56043;SDS011;41912;51.022;3.664;2022-11-06T09:44:41;8.23;;;1.90;;
56043;SDS011;41912;51.022;3.664;2022-11-06T09:47:20;11.25;;;2.25;;
56043;SDS011;41912;51.022;3.664;2022-11-06T09:49:50;7.75;;;2.13;;
56043;SDS011;41912;51.022;3.664;2022-11-06T09:54:57;7.13;;;1.80;;
56043;SDS011;41912;51.022;3.664;2022-11-06T10:00:04;3.90;;;1.52;;
56043;SDS011;41912;51.022;3.664;2022-11-06T10:02:32;5.32;;;1.95;;
56043;SDS011;41912;51.022;3.664;2022-11-06T10:07:45;11.35;;;2.65;;
56043;SDS011;41912;51.022;3.664;2022-11-06T10:10:14;7.13;;;2.50;;
56043;SDS011;41912;51.022;3.664;2022-11-06T10:15:33;10.77;;;2.33;;
56043;SDS011;41912;51.022;3.664;2022-11-06T10:23:29;6.20;;;2.08;;
56043;SDS011;41912;51.022;3.664;2022-11-06T10:34:09;7.90;;;1.63;;
56043;SDS011;41912;51.022;3.664;2022-11-06T10:36:51;8.55;;;2.35;;
56043;SDS011;41912;51.022;3.664;2022-11-06T10:39:27;6.97;;;1.70;;
56043;SDS011;41912;51.022;3.664;2022-11-06T10:44:41;5.68;;;1.95;;
56043;SDS011;41912;51.022;3.664;2022-11-06T10:47:25;7.10;;;1.48;;
56043;SDS011;41912;51.022;3.664;2022-11-06T10:50:01;6.20;;;1.70;;
56043;SDS011;41912;51.022;3.664;2022-11-06T10:57:35;8.18;;;1.52;;
56043;SDS011;41912;51.022;3.664;2022-11-06T11:00:11;9.02;;;1.95;;
56043;SDS011;41912;51.022;3.664;2022-11-06T11:02:39;8.35;;;1.50;;
56043;SDS011;41912;51.022;3.664;2022-11-06T11:05:12;8.20;;;1.50;;
56043;SDS011;41912;51.022;3.664;2022-11-06T11:07:39;8.50;;;1.70;;
56043;SDS011;41912;51.022;3.664;2022-11-06T11:12:48;9.30;;;2.20;;
56043;SDS011;41912;51.022;3.664;2022-11-06T11:15:16;13.13;;;2.13;;
56043;SDS011;41912;51.022;3.664;2022-11-06T11:18:05;13.90;;;2.42;;
56043;SDS011;41912;51.022;3.664;2022-11-06T11:20:34;7.63;;;2.28;;
56043;SDS011;41912;51.022;3.664;2022-11-06T11:25:55;6.05;;;2.20;;
56043;SDS011;41912;51.022;3.664;2022-11-06T11:28:35;11.88;;;2.35;;
56043;SDS011;41912;51.022;3.664;2022-11-06T11:31:09;8.68;;;1.80;;
56043;SDS011;41912;51.022;3.664;2022-11-06T11:33:37;9.95;;;1.95;;
56043;SDS011;41912;51.022;3.664;2022-11-06T11:36:04;22.42;;;2.13;;
56043;SDS011;41912;51.022;3.664;2022-11-06T11:38:36;9.00;;;2.33;;
56043;SDS011;41912;51.022;3.664;2022-11-06T11:41:07;6.28;;;1.73;;
56043;SDS011;41912;51.022;3.664;2022-11-06T11:44:31;11.05;;;2.25;;
56043;SDS011;41912;51.022;3.664;2022-11-06T11:52:10;10.27;;;1.98;;
56043;SDS011;41912;51.022;3.664;2022-11-06T11:54:40;8.23;;;2.05;;
56043;SDS011;41912;51.022;3.664;2022-11-06T11:57:16;7.43;;;2.00;;
56043;SDS011;41912;51.022;3.664;2022-11-06T11:59:45;11.07;;;3.08;;
56043;SDS011;41912;51.022;3.664;2022-11-06T12:04:52;7.55;;;2.17;;
56043;SDS011;41912;51.022;3.664;2022-11-06T12:07:28;9.77;;;2.72;;
56043;SDS011;41912;51.022;3.664;2022-11-06T12:09:57;6.25;;;2.10;;
56043;SDS011;41912;51.022;3.664;2022-11-06T12:12:33;7.07;;;1.80;;
56043;SDS011;41912;51.022;3.664;2022-11-06T12:15:04;10.65;;;2.25;;
56043;SDS011;41912;51.022;3.664;2022-11-06T12:17:51;12.50;;;2.05;;
56043;SDS011;41912;51.022;3.664;2022-11-06T12:20:25;12.90;;;2.88;;
56043;SDS011;41912;51.022;3.664;2022-11-06T12:22:59;9.35;;;2.20;;
56043;SDS011;41912;51.022;3.664;2022-11-06T12:25:29;10.95;;;2.45;;
56043;SDS011;41912;51.022;3.664;2022-11-06T12:28:01;10.55;;;2.50;;
56043;SDS011;41912;51.022;3.664;2022-11-06T12:30:29;13.07;;;2.50;;
56043;SDS011;41912;51.022;3.664;2022-11-06T12:35:41;10.30;;;2.80;;
56043;SDS011;41912;51.022;3.664;2022-11-06T12:41:14;11.45;;;2.47;;
56043;SDS011;41912;51.022;3.664;2022-11-06T12:43:50;14.25;;;2.97;;
56043;SDS011;41912;51.022;3.664;2022-11-06T12:46:23;10.77;;;2.05;;
56043;SDS011;41912;51.022;3.664;2022-11-06T12:49:21;7.95;;;2.03;;
56043;SDS011;41912;51.022;3.664;2022-11-06T12:55:12;12.43;;;2.30;;
56043;SDS011;41912;51.022;3.664;2022-11-06T13:00:22;10.10;;;2.28;;
56043;SDS011;41912;51.022;3.664;2022-11-06T13:16:43;4.50;;;1.58;;
56043;SDS011;41912;51.022;3.664;2022-11-06T13:24:35;5.70;;;1.60;;
56043;SDS011;41912;51.022;3.664;2022-11-06T13:27:16;10.65;;;1.80;;
56043;SDS011;41912;51.022;3.664;2022-11-06T13:30:00;6.93;;;1.48;;
56043;SDS011;41912;51.022;3.664;2022-11-06T13:32:29;6.03;;;1.88;;
56043;SDS011;41912;51.022;3.664;2022-11-06T13:34:56;5.03;;;2.10;;
56043;SDS011;41912;51.022;3.664;2022-11-06T13:37:40;6.00;;;1.95;;
56043;SDS011;41912;51.022;3.664;2022-11-06T13:40:44;7.13;;;1.90;;
56043;SDS011;41912;51.022;3.664;2022-11-06T13:43:24;5.75;;;1.83;;
56043;SDS011;41912;51.022;3.664;2022-11-06T13:48:46;6.78;;;1.88;;
56043;SDS011;41912;51.022;3.664;2022-11-06T13:51:57;6.38;;;2.47;;
56043;SDS011;41912;51.022;3.664;2022-11-06T13:55:26;6.95;;;1.73;;
56043;SDS011;41912;51.022;3.664;2022-11-06T14:03:32;5.95;;;1.75;;
56043;SDS011;41912;51.022;3.664;2022-11-06T14:06:21;8.85;;;1.85;;
56043;SDS011;41912;51.022;3.664;2022-11-06T14:08:51;6.20;;;2.03;;
56043;SDS011;41912;51.022;3.664;2022-11-06T14:11:36;5.60;;;2.05;;
56043;SDS011;41912;51.022;3.664;2022-11-06T14:16:38;10.68;;;2.22;;
56043;SDS011;41912;51.022;3.664;2022-11-06T14:24:31;11.32;;;2.17;;
56043;SDS011;41912;51.022;3.664;2022-11-06T14:26:59;9.10;;;1.77;;
56043;SDS011;41912;51.022;3.664;2022-11-06T14:34:31;6.45;;;1.70;;
56043;SDS011;41912;51.022;3.664;2022-11-06T14:36:58;8.07;;;2.67;;
56043;SDS011;41912;51.022;3.664;2022-11-06T14:42:27;6.82;;;1.88;;
56043;SDS011;41912;51.022;3.664;2022-11-06T14:47:33;5.18;;;1.65;;
56043;SDS011;41912;51.022;3.664;2022-11-06T14:53:01;9.48;;;2.60;;
56043;SDS011;41912;51.022;3.664;2022-11-06T14:55:40;10.68;;;1.95;;
56043;SDS011;41912;51.022;3.664;2022-11-06T14:58:13;3.85;;;2.00;;
56043;SDS011;41912;51.022;3.664;2022-11-06T15:03:50;7.35;;;2.20;;
56043;SDS011;41912;51.022;3.664;2022-11-06T15:08:57;7.50;;;1.90;;
56043;SDS011;41912;51.022;3.664;2022-11-06T15:16:24;4.97;;;2.08;;
56043;SDS011;41912;51.022;3.664;2022-11-06T15:18:52;9.38;;;1.75;;
56043;SDS011;41912;51.022;3.664;2022-11-06T15:21:23;7.10;;;1.90;;
56043;SDS011;41912;51.022;3.664;2022-11-06T15:26:47;3.75;;;1.73;;
56043;SDS011;41912;51.022;3.664;2022-11-06T15:29:19;4.47;;;1.75;;
56043;SDS011;41912;51.022;3.664;2022-11-06T15:31:50;7.75;;;2.50;;
56043;SDS011;41912;51.022;3.664;2022-11-06T15:34:31;5.35;;;1.88;;
56043;SDS011;41912;51.022;3.664;2022-11-06T15:39:49;5.72;;;1.70;;
56043;SDS011;41912;51.022;3.664;2022-11-06T15:42:20;5.63;;;1.95;;
56043;SDS011;41912;51.022;3.664;2022-11-06T15:45:39;5.32;;;1.63;;
56043;SDS011;41912;51.022;3.664;2022-11-06T15:50:43;5.75;;;2.17;;
56043;SDS011;41912;51.022;3.664;2022-11-06T15:55:39;6.70;;;2.42;;
56043;SDS011;41912;51.022;3.664;2022-11-06T16:00:45;6.22;;;2.25;;
56043;SDS011;41912;51.022;3.664;2022-11-06T16:03:12;7.45;;;2.30;;
56043;SDS011;41912;51.022;3.664;2022-11-06T16:05:43;9.27;;;2.80;;
56043;SDS011;41912;51.022;3.664;2022-11-06T16:08:10;6.10;;;2.75;;
56043;SDS011;41912;51.022;3.664;2022-11-06T16:10:38;6.30;;;2.78;;
56043;SDS011;41912;51.022;3.664;2022-11-06T16:13:05;11.13;;;2.90;;
56043;SDS011;41912;51.022;3.664;2022-11-06T16:15:47;5.57;;;2.40;;
56043;SDS011;41912;51.022;3.664;2022-11-06T16:18:31;6.70;;;2.28;;
56043;SDS011;41912;51.022;3.664;2022-11-06T16:23:38;5.22;;;2.58;;
56043;SDS011;41912;51.022;3.664;2022-11-06T16:26:08;6.53;;;2.22;;
56043;SDS011;41912;51.022;3.664;2022-11-06T16:28:41;6.60;;;2.35;;
56043;SDS011;41912;51.022;3.664;2022-11-06T16:31:13;6.60;;;2.05;;
56043;SDS011;41912;51.022;3.664;2022-11-06T16:33:40;6.72;;;2.58;;
56043;SDS011;41912;51.022;3.664;2022-11-06T16:36:19;7.45;;;2.28;;
56043;SDS011;41912;51.022;3.664;2022-11-06T16:38:44;5.43;;;2.67;;
56043;SDS011;41912;51.022;3.664;2022-11-06T16:41:11;5.20;;;2.42;;
56043;SDS011;41912;51.022;3.664;2022-11-06T16:44:22;7.22;;;3.30;;
56043;SDS011;41912;51.022;3.664;2022-11-06T16:47:08;5.20;;;2.70;;
56043;SDS011;41912;51.022;3.664;2022-11-06T16:49:41;8.13;;;2.80;;
56043;SDS011;41912;51.022;3.664;2022-11-06T16:54:45;5.63;;;2.78;;
56043;SDS011;41912;51.022;3.664;2022-11-06T16:57:14;4.72;;;2.67;;
56043;SDS011;41912;51.022;3.664;2022-11-06T16:59:43;7.43;;;3.03;;
56043;SDS011;41912;51.022;3.664;2022-11-06T17:02:23;7.57;;;2.83;;
56043;SDS011;41912;51.022;3.664;2022-11-06T17:05:02;6.03;;;3.58;;
56043;SDS011;41912;51.022;3.664;2022-11-06T17:13:39;7.50;;;3.67;;
56043;SDS011;41912;51.022;3.664;2022-11-06T17:16:16;7.97;;;3.58;;
56043;SDS011;41912;51.022;3.664;2022-11-06T17:18:46;9.05;;;3.97;;
56043;SDS011;41912;51.022;3.664;2022-11-06T17:21:17;10.43;;;3.80;;
56043;SDS011;41912;51.022;3.664;2022-11-06T17:23:48;8.20;;;3.85;;
56043;SDS011;41912;51.022;3.664;2022-11-06T17:26:18;9.95;;;4.25;;
56043;SDS011;41912;51.022;3.664;2022-11-06T17:28:51;7.50;;;4.05;;
56043;SDS011;41912;51.022;3.664;2022-11-06T17:31:19;6.95;;;4.03;;
56043;SDS011;41912;51.022;3.664;2022-11-06T17:33:45;7.93;;;4.03;;
56043;SDS011;41912;51.022;3.664;2022-11-06T17:36:21;9.23;;;3.88;;
56043;SDS011;41912;51.022;3.664;2022-11-06T17:38:51;8.65;;;4.60;;
56043;SDS011;41912;51.022;3.664;2022-11-06T17:41:21;7.70;;;4.47;;
56043;SDS011;41912;51.022;3.664;2022-11-06T17:44:01;7.32;;;4.28;;
56043;SDS011;41912;51.022;3.664;2022-11-06T17:46:28;6.75;;;4.05;;
56043;SDS011;41912;51.022;3.664;2022-11-06T17:49:00;10.75;;;4.88;;
56043;SDS011;41912;51.022;3.664;2022-11-06T17:51:26;11.38;;;5.00;;
56043;SDS011;41912;51.022;3.664;2022-11-06T17:54:11;8.05;;;4.60;;
56043;SDS011;41912;51.022;3.664;2022-11-06T17:56:37;10.50;;;4.57;;
56043;SDS011;41912;51.022;3.664;2022-11-06T17:59:04;10.48;;;5.43;;